createdAt,value
2019-02-02T00:00:10.700Z,36.06
2019-02-02T00:01:18.766Z,36.15
2019-02-02T00:02:26.827Z,35.02
2019-02-02T00:03:34.879Z,34.55
2019-02-02T00:04:42.937Z,34.06
2019-02-02T00:05:50.975Z,35.19
2019-02-02T00:06:59.047Z,34.44
2019-02-02T00:08:07.104Z,34.06
2019-02-02T00:09:15.153Z,33.88
2019-02-02T00:10:23.213Z,34.25
2019-02-02T00:11:31.275Z,34.45
2019-02-02T00:12:39.325Z,35.21
2019-02-02T00:13:47.379Z,35.10
2019-02-02T00:14:55.434Z,35.19
2019-02-02T00:16:03.488Z,34.17
2019-02-02T00:17:11.572Z,33.96
2019-02-02T00:18:19.586Z,33.87
2019-02-02T00:19:27.666Z,33.98
2019-02-02T00:20:35.718Z,33.50
2019-02-02T00:21:43.765Z,33.98
2019-02-02T00:22:51.848Z,33.77
2019-02-02T00:23:59.880Z,33.60
2019-02-02T00:25:07.936Z,33.50
2019-02-02T00:26:16.007Z,32.46
2019-02-02T00:27:24.030Z,31.69
2019-02-02T00:28:32.123Z,32.65
2019-02-02T00:29:40.166Z,33.12
2019-02-02T00:30:48.238Z,32.26
2019-02-02T00:31:56.354Z,30.65
2019-02-02T00:33:04.337Z,30.76
2019-02-02T00:34:12.403Z,30.38
2019-02-02T00:35:20.458Z,31.22
2019-02-02T00:36:28.517Z,31.12
2019-02-02T00:37:36.576Z,31.22
2019-02-02T00:38:44.611Z,31.41
2019-02-02T00:39:52.668Z,31.22
2019-02-02T00:41:00.746Z,31.41
2019-02-02T00:42:08.796Z,31.22
2019-02-02T00:43:16.859Z,31.12
2019-02-02T00:44:24.971Z,30.95
2019-02-02T00:45:32.989Z,31.03
2019-02-02T00:46:41.010Z,31.03
2019-02-02T00:47:49.071Z,31.23
2019-02-02T00:48:57.130Z,31.14
2019-02-02T00:50:05.185Z,31.52
2019-02-02T00:51:13.263Z,31.79
2019-02-02T00:52:21.303Z,31.79
2019-02-02T00:53:29.378Z,31.99
2019-02-02T00:54:37.435Z,32.84
2019-02-02T00:55:45.479Z,33.22
2019-02-02T00:56:53.543Z,33.01
2019-02-02T00:58:01.588Z,33.03
2019-02-02T00:59:09.642Z,34.34
2019-02-02T01:00:17.711Z,35.68
2019-02-02T01:01:25.759Z,35.38
2019-02-02T01:02:33.807Z,36.35
2019-02-02T01:03:41.874Z,37.08
2019-02-02T01:04:49.919Z,37.93
2019-02-02T01:05:57.989Z,37.65
2019-02-02T01:07:06.053Z,37.27
2019-02-02T01:08:14.122Z,37.27
2019-02-02T01:09:22.171Z,37.01
2019-02-02T01:10:30.242Z,38.12
2019-02-02T01:11:38.280Z,39.26
2019-02-02T01:12:46.326Z,40.11
2019-02-02T01:13:54.363Z,39.73
2019-02-02T01:15:02.464Z,40.87
2019-02-02T01:16:10.598Z,40.39
2019-02-02T01:17:18.566Z,40.03
2019-02-02T01:18:26.609Z,40.30
2019-02-02T01:19:34.683Z,40.49
2019-02-02T01:20:42.718Z,39.73
2019-02-02T01:21:50.770Z,39.07
2019-02-02T01:22:58.846Z,38.88
2019-02-02T01:24:06.879Z,39.07
2019-02-02T01:25:14.951Z,39.18
2019-02-02T01:26:22.992Z,39.45
2019-02-02T01:27:31.058Z,39.64
2019-02-02T01:28:39.130Z,40.30
2019-02-02T01:29:47.174Z,40.11
2019-02-02T01:30:55.233Z,40.39
2019-02-02T01:32:03.283Z,40.58
2019-02-02T01:33:11.382Z,40.68
2019-02-02T01:34:19.411Z,40.30
2019-02-02T01:35:27.468Z,40.49
2019-02-02T01:36:35.515Z,40.20
2019-02-02T01:37:43.577Z,40.20
2019-02-02T01:38:51.633Z,39.54
2019-02-02T01:39:59.678Z,39.73
2019-02-02T01:41:07.754Z,39.45
2019-02-02T01:42:15.781Z,38.50
2019-02-02T01:43:23.847Z,38.41
2019-02-02T01:44:31.923Z,38.60
2019-02-02T01:45:39.989Z,38.98
2019-02-02T01:46:48.030Z,38.69
2019-02-02T01:47:56.082Z,38.60
2019-02-02T01:49:04.136Z,38.88
2019-02-02T01:50:12.214Z,38.41
2019-02-02T01:51:20.358Z,38.60
2019-02-02T01:52:28.318Z,38.31
2019-02-02T01:53:36.374Z,39.17
2019-02-02T01:54:44.402Z,39.07
2019-02-02T01:55:52.483Z,39.64
2019-02-02T01:57:00.525Z,39.64
2019-02-02T01:58:16.291Z,40.39
2019-02-02T01:59:16.663Z,40.39
2019-02-02T02:00:24.685Z,40.20
2019-02-02T02:01:32.785Z,39.07
2019-02-02T02:02:40.838Z,38.50
2019-02-02T02:03:49.195Z,38.22
2019-02-02T02:04:57.268Z,37.27
2019-02-02T02:06:04.977Z,37.08
2019-02-02T02:07:13.051Z,36.71
2019-02-02T02:08:21.108Z,37.93
2019-02-02T02:09:29.161Z,37.84
2019-02-02T02:10:37.444Z,37.37
2019-02-02T02:11:45.273Z,37.46
2019-02-02T02:12:53.334Z,37.65
2019-02-02T02:14:01.400Z,37.08
2019-02-02T02:15:09.439Z,37.46
2019-02-02T02:16:17.498Z,37.84
2019-02-02T02:17:25.544Z,37.84
2019-02-02T02:18:33.615Z,37.93
2019-02-02T02:19:41.675Z,38.03
2019-02-02T02:20:49.721Z,38.03
2019-02-02T02:21:57.769Z,39.07
2019-02-02T02:23:05.836Z,38.31
2019-02-02T02:24:13.872Z,38.41
2019-02-02T02:25:21.953Z,38.60
2019-02-02T02:26:30.016Z,38.79
2019-02-02T02:27:38.056Z,38.31
2019-02-02T02:28:46.135Z,38.12
2019-02-02T02:29:54.153Z,38.60
2019-02-02T02:31:02.243Z,38.31
2019-02-02T02:32:10.281Z,36.90
2019-02-02T02:33:18.343Z,36.33
2019-02-02T02:34:26.417Z,35.57
2019-02-02T02:35:34.435Z,34.91
2019-02-02T02:36:42.510Z,34.44
2019-02-02T02:37:50.571Z,34.63
2019-02-02T02:38:58.628Z,34.06
2019-02-02T02:40:06.682Z,33.77
2019-02-02T02:41:14.785Z,33.58
2019-02-02T02:42:22.776Z,33.49
2019-02-02T02:43:30.877Z,34.15
2019-02-02T02:44:38.906Z,34.15
2019-02-02T02:45:46.969Z,34.91
2019-02-02T02:46:55.005Z,34.25
2019-02-02T02:48:03.068Z,34.06
2019-02-02T02:49:11.118Z,34.53
2019-02-02T02:50:19.170Z,35.28
2019-02-02T02:51:27.249Z,34.34
2019-02-02T02:52:35.285Z,34.81
2019-02-02T02:53:43.352Z,34.53
2019-02-02T02:54:51.420Z,33.87
2019-02-02T02:55:59.478Z,33.68
2019-02-02T02:57:07.543Z,33.58
2019-02-02T02:58:15.577Z,32.73
2019-02-02T02:59:23.644Z,32.82
2019-02-02T03:00:31.705Z,31.98
2019-02-02T03:01:39.758Z,32.82
2019-02-02T03:02:47.801Z,32.82
2019-02-02T03:03:55.856Z,31.98
2019-02-02T03:05:03.922Z,31.31
2019-02-02T03:06:12.026Z,31.31
2019-02-02T03:07:20.045Z,31.50
2019-02-02T03:08:28.073Z,30.55
2019-02-02T03:09:36.142Z,29.52
2019-02-02T03:10:44.174Z,29.04
2019-02-02T03:11:52.249Z,29.04
2019-02-02T03:13:00.323Z,28.47
2019-02-02T03:14:08.376Z,29.04
2019-02-02T03:15:23.624Z,28.76
2019-02-02T03:16:25.499Z,28.09
2019-02-02T03:17:33.544Z,28.85
2019-02-02T03:18:41.579Z,28.28
2019-02-02T03:19:49.655Z,28.38
2019-02-02T03:20:57.706Z,28.19
2019-02-02T03:22:05.761Z,28.19
2019-02-02T03:23:13.838Z,27.81
2019-02-02T03:24:21.887Z,27.44
2019-02-02T03:25:29.930Z,27.06
2019-02-02T03:26:37.986Z,27.25
2019-02-02T03:27:46.096Z,27.81
2019-02-02T03:28:54.088Z,27.34
2019-02-02T03:30:02.165Z,26.68
2019-02-02T03:31:10.212Z,26.87
2019-02-02T03:32:18.270Z,26.68
2019-02-02T03:33:26.354Z,26.77
2019-02-02T03:34:34.368Z,26.30
2019-02-02T03:35:42.439Z,26.68
2019-02-02T03:36:50.504Z,26.58
2019-02-02T03:37:58.558Z,26.20
2019-02-02T03:39:06.601Z,26.01
2019-02-02T03:40:14.664Z,26.20
2019-02-02T03:41:22.755Z,26.30
2019-02-02T03:42:30.786Z,25.92
2019-02-02T03:43:38.830Z,26.01
2019-02-02T03:44:46.877Z,26.11
2019-02-02T03:45:54.937Z,26.20
2019-02-02T03:47:02.995Z,26.39
2019-02-02T03:48:11.048Z,26.49
2019-02-02T03:49:19.115Z,26.20
2019-02-02T03:50:27.176Z,26.58
2019-02-02T03:51:35.270Z,26.49
2019-02-02T03:52:43.333Z,26.49
2019-02-02T03:53:51.345Z,26.49
2019-02-02T03:54:59.394Z,26.77
2019-02-02T03:56:07.452Z,26.49
2019-02-02T03:57:15.502Z,26.39
2019-02-02T03:58:23.574Z,26.77
2019-02-02T03:59:31.624Z,26.30
2019-02-02T04:00:39.676Z,26.87
2019-02-02T04:01:47.749Z,26.68
2019-02-02T04:02:55.798Z,26.87
2019-02-02T04:04:03.838Z,26.68
2019-02-02T04:05:11.902Z,26.77
2019-02-02T04:06:19.969Z,26.49
2019-02-02T04:07:28.014Z,26.49
2019-02-02T04:08:36.075Z,26.30
2019-02-02T04:09:44.130Z,26.11
2019-02-02T04:10:52.185Z,26.68
2019-02-02T04:12:00.242Z,26.68
2019-02-02T04:13:08.526Z,26.96
2019-02-02T04:14:16.567Z,26.68
2019-02-02T04:15:24.589Z,26.68
2019-02-02T04:16:32.674Z,27.44
2019-02-02T04:17:40.737Z,27.15
2019-02-02T04:18:48.775Z,26.77
2019-02-02T04:19:56.849Z,27.72
2019-02-02T04:21:04.876Z,27.53
2019-02-02T04:22:12.949Z,26.68
2019-02-02T04:23:21.010Z,27.44
2019-02-02T04:24:29.063Z,27.91
2019-02-02T04:25:37.127Z,28.95
2019-02-02T04:26:45.187Z,29.90
2019-02-02T04:27:53.253Z,29.04
2019-02-02T04:29:01.282Z,28.95
2019-02-02T04:30:09.354Z,28.95
2019-02-02T04:31:17.416Z,29.33
2019-02-02T04:32:25.473Z,29.14
2019-02-02T04:33:33.539Z,29.71
2019-02-02T04:34:41.580Z,29.71
2019-02-02T04:35:49.637Z,29.42
2019-02-02T04:36:57.695Z,29.43
2019-02-02T04:38:05.756Z,29.42
2019-02-02T04:39:13.836Z,29.99
2019-02-02T04:40:21.873Z,30.27
2019-02-02T04:41:29.970Z,30.18
2019-02-02T04:42:37.969Z,30.27
2019-02-02T04:43:46.037Z,30.55
2019-02-02T04:44:54.075Z,30.65
2019-02-02T04:46:02.153Z,30.84
2019-02-02T04:47:10.206Z,31.03
2019-02-02T04:48:18.265Z,30.84
2019-02-02T04:49:26.316Z,30.84
2019-02-02T04:50:34.361Z,30.74
2019-02-02T04:51:42.456Z,31.88
2019-02-02T04:52:50.482Z,30.93
2019-02-02T04:53:58.541Z,31.12
2019-02-02T04:55:06.610Z,31.60
2019-02-02T04:56:14.650Z,31.79
2019-02-02T04:57:22.721Z,31.22
2019-02-02T04:58:30.776Z,31.12
2019-02-02T04:59:38.826Z,31.50
2019-02-02T05:00:46.886Z,31.69
2019-02-02T05:01:54.943Z,31.79
2019-02-02T05:03:03.029Z,31.31
2019-02-02T05:04:11.056Z,31.31
2019-02-02T05:05:19.126Z,31.03
2019-02-02T05:06:27.171Z,31.60
2019-02-02T05:07:35.245Z,31.98
2019-02-02T05:08:43.286Z,31.22
2019-02-02T05:09:51.438Z,30.85
2019-02-02T05:10:59.388Z,31.60
2019-02-02T05:12:07.468Z,30.36
2019-02-02T05:13:15.529Z,30.46
2019-02-02T05:14:23.576Z,30.84
2019-02-02T05:15:31.639Z,31.12
2019-02-02T05:16:39.680Z,33.30
2019-02-02T05:17:47.740Z,33.87
2019-02-02T05:18:55.805Z,34.44
2019-02-02T05:20:03.836Z,34.25
2019-02-02T05:21:11.925Z,33.87
2019-02-02T05:22:19.967Z,33.87
2019-02-02T05:23:28.022Z,32.92
2019-02-02T05:24:36.076Z,33.20
2019-02-02T05:25:44.154Z,31.98
2019-02-02T05:26:52.187Z,32.07
2019-02-02T05:28:00.249Z,31.60
2019-02-02T05:29:08.311Z,32.07
2019-02-02T05:30:16.376Z,32.26
2019-02-02T05:31:24.413Z,33.11
2019-02-02T05:32:32.479Z,34.25
2019-02-02T05:33:40.531Z,34.34
2019-02-02T05:34:48.618Z,33.96
2019-02-02T05:35:56.652Z,33.96
2019-02-02T05:37:04.696Z,34.15
2019-02-02T05:38:13.127Z,34.91
2019-02-02T05:39:20.827Z,35.66
2019-02-02T05:40:29.300Z,34.06
2019-02-02T05:41:36.937Z,34.63
2019-02-02T05:42:44.981Z,34.81
2019-02-02T05:43:53.055Z,35.47
2019-02-02T05:45:01.115Z,35.47
2019-02-02T05:46:09.166Z,35.57
2019-02-02T05:47:17.214Z,35.95
2019-02-02T05:48:25.269Z,37.08
2019-02-02T05:49:33.340Z,38.03
2019-02-02T05:50:41.379Z,37.27
2019-02-02T05:51:49.441Z,36.61
2019-02-02T05:52:57.476Z,36.71
2019-02-02T05:54:05.557Z,37.18
2019-02-02T05:55:13.646Z,36.80
2019-02-02T05:56:21.671Z,37.18
2019-02-02T05:57:29.762Z,37.65
2019-02-02T05:58:37.771Z,37.46
2019-02-02T05:59:52.424Z,37.46
2019-02-02T06:00:53.886Z,37.55
2019-02-02T06:02:01.953Z,37.55
2019-02-02T06:03:10.001Z,37.08
2019-02-02T06:04:18.384Z,36.71
2019-02-02T06:05:26.139Z,37.93
2019-02-02T06:06:34.177Z,38.31
2019-02-02T06:07:42.248Z,36.23
2019-02-02T06:08:50.269Z,35.95
2019-02-02T06:09:58.352Z,35.95
2019-02-02T06:11:06.514Z,35.85
2019-02-02T06:12:14.448Z,35.38
2019-02-02T06:13:22.508Z,34.53
2019-02-02T06:14:30.565Z,35.00
2019-02-02T06:15:38.631Z,35.28
2019-02-02T06:16:46.685Z,36.71
2019-02-02T06:17:54.738Z,36.71
2019-02-02T06:19:02.775Z,37.74
2019-02-02T06:20:10.848Z,39.07
2019-02-02T06:21:18.886Z,40.39
2019-02-02T06:22:26.974Z,40.68
2019-02-02T06:23:35.020Z,41.15
2019-02-02T06:24:43.077Z,43.71
2019-02-02T06:25:51.189Z,45.31
2019-02-02T06:26:59.181Z,45.03
2019-02-02T06:28:07.243Z,43.14
2019-02-02T06:29:15.299Z,41.91
2019-02-02T06:30:23.362Z,41.06
2019-02-02T06:31:31.405Z,40.87
2019-02-02T06:32:39.467Z,40.87
2019-02-02T06:33:47.532Z,40.39
2019-02-02T06:34:55.584Z,40.09
2019-02-02T06:36:03.783Z,40.30
2019-02-02T06:37:12.755Z,39.36
2019-02-02T06:38:20.003Z,39.26
2019-02-02T06:39:27.794Z,39.07
2019-02-02T06:40:35.875Z,38.98
2019-02-02T06:41:43.991Z,38.88
2019-02-02T06:42:51.975Z,38.60
2019-02-02T06:44:00.046Z,39.26
2019-02-02T06:45:08.074Z,38.79
2019-02-02T06:46:16.158Z,39.45
2019-02-02T06:47:24.177Z,38.88
2019-02-02T06:48:32.266Z,38.98
2019-02-02T06:49:40.310Z,39.05
2019-02-02T06:50:48.366Z,38.88
2019-02-02T06:51:56.426Z,39.90
2019-02-02T06:53:04.459Z,40.11
2019-02-02T06:54:12.530Z,40.11
2019-02-02T06:55:20.605Z,40.49
2019-02-02T06:56:28.660Z,42.17
2019-02-02T06:57:36.721Z,42.55
2019-02-02T06:58:44.755Z,42.29
2019-02-02T06:59:52.830Z,42.10
2019-02-02T07:01:00.893Z,41.22
2019-02-02T07:02:08.935Z,41.32
2019-02-02T07:03:17.004Z,40.96
2019-02-02T07:04:25.054Z,40.68
2019-02-02T07:05:33.807Z,40.77
2019-02-02T07:06:41.463Z,40.49
2019-02-02T07:07:49.245Z,40.49
2019-02-02T07:08:57.360Z,40.39
2019-02-02T07:10:05.340Z,40.49
2019-02-02T07:11:13.399Z,40.49
2019-02-02T07:12:21.446Z,40.58
2019-02-02T07:13:29.508Z,40.39
2019-02-02T07:14:37.565Z,40.49
2019-02-02T07:15:45.608Z,40.20
2019-02-02T07:16:53.668Z,40.01
2019-02-02T07:18:01.745Z,38.98
2019-02-02T07:19:09.782Z,39.36
2019-02-02T07:20:17.936Z,38.79
2019-02-02T07:21:25.883Z,38.88
2019-02-02T07:22:34.125Z,38.69
2019-02-02T07:23:42.009Z,38.31
2019-02-02T07:24:50.312Z,38.03
2019-02-02T07:25:58.331Z,37.84
2019-02-02T07:27:06.173Z,37.55
2019-02-02T07:28:14.230Z,36.90
2019-02-02T07:29:22.334Z,37.27
2019-02-02T07:30:30.354Z,38.12
2019-02-02T07:31:38.401Z,38.60
2019-02-02T07:32:46.489Z,37.74
2019-02-02T07:33:54.489Z,37.55
2019-02-02T07:35:02.580Z,37.27
2019-02-02T07:36:10.639Z,36.90
2019-02-02T07:37:18.682Z,37.65
2019-02-02T07:38:26.750Z,38.12
2019-02-02T07:39:34.783Z,37.74
2019-02-02T07:40:42.867Z,38.69
2019-02-02T07:41:50.924Z,38.88
2019-02-02T07:42:58.969Z,38.60
2019-02-02T07:44:07.030Z,36.99
2019-02-02T07:45:15.718Z,37.55
2019-02-02T07:46:23.638Z,37.84
2019-02-02T07:47:33.588Z,39.83
2019-02-02T07:48:39.258Z,46.17
2019-02-02T07:49:47.309Z,46.92
2019-02-02T07:50:55.570Z,45.69
2019-02-02T07:52:03.519Z,45.60
2019-02-02T07:53:11.824Z,45.98
2019-02-02T07:54:19.610Z,44.84
2019-02-02T07:55:27.617Z,46.64
2019-02-02T07:56:35.679Z,45.69
2019-02-02T07:57:43.717Z,44.46
2019-02-02T07:58:51.774Z,42.85
2019-02-02T07:59:59.830Z,42.95
2019-02-02T08:01:08.075Z,42.29
2019-02-02T08:02:16.304Z,41.25
2019-02-02T08:03:23.984Z,40.49
2019-02-02T08:04:32.352Z,40.20
2019-02-02T08:05:40.407Z,41.15
2019-02-02T08:06:48.195Z,42.11
2019-02-02T08:07:56.242Z,42.38
2019-02-02T08:09:04.550Z,42.40
2019-02-02T08:10:12.332Z,42.00
2019-02-02T08:11:20.427Z,42.59
2019-02-02T08:12:28.451Z,45.88
2019-02-02T08:13:36.732Z,48.27
2019-02-02T08:14:44.772Z,47.51
2019-02-02T08:15:52.850Z,47.23
2019-02-02T08:17:01.124Z,49.60
2019-02-02T08:18:08.901Z,49.85
2019-02-02T08:19:16.804Z,49.31
2019-02-02T08:20:24.891Z,49.03
2019-02-02T08:21:32.953Z,48.08
2019-02-02T08:22:41.192Z,47.99
2019-02-02T08:23:49.292Z,47.61
2019-02-02T08:24:57.586Z,49.50
2019-02-02T08:26:05.526Z,48.27
2019-02-02T08:27:14.180Z,46.37
2019-02-02T08:28:21.961Z,44.67
2019-02-02T08:29:29.589Z,44.20
2019-02-02T08:30:37.613Z,42.30
2019-02-02T08:31:45.439Z,41.36
2019-02-02T08:32:53.478Z,42.11
2019-02-02T08:34:01.973Z,42.21
2019-02-02T08:35:09.603Z,42.02
2019-02-02T08:36:17.670Z,42.97
2019-02-02T08:37:25.727Z,42.69
2019-02-02T08:38:33.760Z,42.11
2019-02-02T08:39:41.831Z,40.70
2019-02-02T08:40:49.885Z,42.50
2019-02-02T08:41:57.942Z,43.35
2019-02-02T08:43:06.007Z,44.20
2019-02-02T08:44:14.034Z,45.43
2019-02-02T08:45:22.114Z,44.96
2019-02-02T08:46:30.167Z,46.09
2019-02-02T08:47:38.237Z,46.00
2019-02-02T08:48:46.302Z,46.09
2019-02-02T08:49:54.327Z,46.37
2019-02-02T08:51:02.402Z,47.13
2019-02-02T08:52:10.725Z,47.13
2019-02-02T08:53:18.630Z,47.70
2019-02-02T08:54:26.647Z,48.08
2019-02-02T08:55:34.606Z,48.08
2019-02-02T08:56:42.759Z,47.80
2019-02-02T08:57:50.808Z,45.72
2019-02-02T08:58:58.805Z,45.43
2019-02-02T09:00:06.970Z,45.05
2019-02-02T09:01:15.153Z,43.91
2019-02-02T09:02:22.967Z,45.05
2019-02-02T09:03:31.089Z,44.86
2019-02-02T09:04:39.112Z,43.16
2019-02-02T09:05:47.155Z,41.27
2019-02-02T09:06:55.461Z,42.02
2019-02-02T09:08:03.505Z,40.89
2019-02-02T09:09:11.494Z,40.60
2019-02-02T09:10:19.728Z,40.13
2019-02-02T09:11:27.687Z,39.84
2019-02-02T09:12:35.583Z,38.52
2019-02-02T09:13:43.554Z,39.84
2019-02-02T09:14:51.983Z,42.21
2019-02-02T09:15:59.675Z,40.70
2019-02-02T09:17:07.727Z,39.84
2019-02-02T09:18:15.770Z,39.65
2019-02-02T09:19:23.837Z,39.28
2019-02-02T09:20:31.917Z,39.00
2019-02-02T09:21:39.956Z,38.71
2019-02-02T09:22:48.002Z,38.33
2019-02-02T09:23:56.071Z,38.71
2019-02-02T09:25:04.126Z,38.62
2019-02-02T09:26:12.166Z,39.28
2019-02-02T09:27:20.250Z,39.84
2019-02-02T09:28:28.649Z,39.09
2019-02-02T09:29:36.666Z,39.37
2019-02-02T09:30:45.940Z,41.93
2019-02-02T09:31:52.491Z,41.27
2019-02-02T09:33:00.540Z,39.75
2019-02-02T09:34:08.671Z,42.02
2019-02-02T09:35:16.789Z,43.82
2019-02-02T09:36:24.714Z,43.91
2019-02-02T09:37:32.772Z,44.01
2019-02-02T09:38:40.833Z,42.78
2019-02-02T09:39:48.871Z,44.01
2019-02-02T09:40:57.072Z,47.80
2019-02-02T09:42:04.973Z,45.05
2019-02-02T09:43:13.457Z,45.72
2019-02-02T09:44:21.107Z,44.48
2019-02-02T09:45:29.173Z,42.30
2019-02-02T09:46:37.225Z,42.11
2019-02-02T09:47:47.208Z,41.27
2019-02-02T09:48:53.370Z,42.59
2019-02-02T09:50:01.455Z,43.54
2019-02-02T09:51:09.841Z,43.35
2019-02-02T09:52:17.535Z,43.07
2019-02-02T09:53:25.574Z,42.40
2019-02-02T09:54:34.129Z,43.26
2019-02-02T09:55:41.690Z,41.93
2019-02-02T09:56:49.745Z,42.30
2019-02-02T09:57:57.802Z,40.89
2019-02-02T09:59:05.870Z,40.72
2019-02-02T10:00:13.921Z,40.32
2019-02-02T10:01:27.616Z,39.65
2019-02-02T10:02:30.039Z,39.96
2019-02-02T10:03:38.093Z,42.14
2019-02-02T10:04:46.153Z,42.14
2019-02-02T10:05:54.190Z,43.65
2019-02-02T10:07:02.271Z,42.71
2019-02-02T10:08:10.321Z,41.85
2019-02-02T10:09:18.375Z,43.75
2019-02-02T10:10:26.815Z,41.85
2019-02-02T10:11:34.469Z,43.18
2019-02-02T10:12:43.540Z,44.13
2019-02-02T10:13:52.135Z,41.95
2019-02-02T10:14:58.949Z,43.56
2019-02-02T10:16:06.725Z,45.64
2019-02-02T10:17:14.790Z,50.57
2019-02-02T10:18:22.839Z,48.01
2019-02-02T10:19:30.904Z,49.90
2019-02-02T10:20:38.976Z,49.33
2019-02-02T10:21:49.498Z,49.71
2019-02-02T10:22:55.630Z,47.06
2019-02-02T10:24:03.627Z,42.04
2019-02-02T10:25:11.601Z,46.50
2019-02-02T10:26:19.235Z,46.50
2019-02-02T10:27:27.317Z,47.34
2019-02-02T10:28:35.365Z,47.72
2019-02-02T10:29:43.462Z,45.83
2019-02-02T10:30:52.159Z,47.53
2019-02-02T10:31:59.550Z,55.68
2019-02-02T10:33:08.012Z,61.46
2019-02-02T10:34:15.707Z,58.14
2019-02-02T10:35:24.355Z,50.28
2019-02-02T10:36:32.054Z,51.70
2019-02-02T10:37:39.821Z,49.15
2019-02-02T10:38:47.878Z,47.34
2019-02-02T10:39:56.144Z,45.83
2019-02-02T10:41:04.116Z,46.88
2019-02-02T10:42:12.171Z,45.55
2019-02-02T10:43:20.132Z,46.42
2019-02-02T10:44:28.728Z,48.60
2019-02-02T10:45:36.245Z,55.71
2019-02-02T10:46:44.336Z,51.26
2019-02-02T10:47:52.367Z,55.33
2019-02-02T10:49:00.441Z,53.34
2019-02-02T10:50:08.481Z,57.51
2019-02-02T10:51:16.538Z,65.37
2019-02-02T10:52:24.573Z,60.25
2019-02-02T10:53:34.260Z,61.65
2019-02-02T10:54:40.725Z,53.50
2019-02-02T10:55:48.773Z,58.65
2019-02-02T10:56:56.842Z,54.00
2019-02-02T10:58:04.884Z,55.14
2019-02-02T10:59:12.966Z,55.71
2019-02-02T11:00:21.019Z,53.15
2019-02-02T11:01:29.072Z,57.89
2019-02-02T11:02:37.141Z,63.29
2019-02-02T11:03:45.215Z,65.19
2019-02-02T11:04:53.582Z,68.02
2019-02-02T11:06:01.960Z,65.37
2019-02-02T11:07:09.647Z,63.57
2019-02-02T11:08:17.448Z,65.09
2019-02-02T11:09:25.590Z,65.00
2019-02-02T11:10:33.688Z,67.65
2019-02-02T11:11:41.609Z,63.23
2019-02-02T11:12:49.678Z,65.31
2019-02-02T11:13:57.725Z,69.67
2019-02-02T11:15:05.794Z,69.54
2019-02-02T11:16:13.839Z,69.86
2019-02-02T11:17:21.948Z,79.72
2019-02-02T11:18:30.192Z,81.99
2019-02-02T11:19:38.203Z,75.17
2019-02-02T11:20:46.734Z,70.53
2019-02-02T11:21:54.514Z,70.90
2019-02-02T11:23:02.305Z,69.10
2019-02-02T11:24:10.335Z,76.87
2019-02-02T11:25:18.497Z,76.59
2019-02-02T11:26:26.479Z,85.41
2019-02-02T11:27:34.531Z,79.53
2019-02-02T11:28:42.804Z,76.03
2019-02-02T11:29:50.603Z,72.71
2019-02-02T11:30:58.663Z,74.13
2019-02-02T11:32:06.699Z,76.21
2019-02-02T11:33:14.757Z,74.88
2019-02-02T11:34:22.838Z,82.18
2019-02-02T11:35:31.105Z,78.11
2019-02-02T11:36:39.766Z,79.91
2019-02-02T11:37:46.981Z,81.52
2019-02-02T11:38:55.069Z,85.31
2019-02-02T11:40:03.143Z,82.94
2019-02-02T11:41:11.191Z,84.55
2019-02-02T11:42:19.255Z,83.98
2019-02-02T11:43:27.329Z,86.07
2019-02-02T11:44:35.379Z,84.03
2019-02-02T11:45:43.498Z,87.35
2019-02-02T11:46:51.469Z,85.50
2019-02-02T11:47:59.554Z,84.94
2019-02-02T11:49:07.617Z,83.89
2019-02-02T11:50:15.854Z,85.22
2019-02-02T11:51:23.737Z,85.69
2019-02-02T11:52:31.793Z,83.98
2019-02-02T11:53:39.881Z,86.83
2019-02-02T11:54:47.932Z,82.75
2019-02-02T11:55:55.973Z,83.84
2019-02-02T11:57:04.019Z,89.15
2019-02-02T11:58:12.080Z,90.57
2019-02-02T11:59:20.147Z,88.87
2019-02-02T12:00:28.202Z,88.96
2019-02-02T12:01:36.287Z,91.90
2019-02-02T12:02:49.229Z,90.86
2019-02-02T12:03:52.386Z,93.70
2019-02-02T12:05:00.514Z,92.18
2019-02-02T12:06:08.486Z,93.61
2019-02-02T12:07:16.942Z,95.41
2019-02-02T12:08:24.624Z,90.00
2019-02-02T12:09:32.751Z,89.72
2019-02-02T12:10:40.750Z,91.42
2019-02-02T12:11:48.803Z,90.57
2019-02-02T12:12:56.843Z,96.64
2019-02-02T12:14:04.897Z,91.80
2019-02-02T12:15:12.970Z,92.28
2019-02-02T12:16:21.042Z,94.37
2019-02-02T12:17:29.119Z,96.45
2019-02-02T12:18:37.141Z,95.69
2019-02-02T12:19:45.235Z,91.42
2019-02-02T12:20:53.270Z,94.27
2019-02-02T12:22:01.303Z,95.03
2019-02-02T12:23:09.443Z,95.12
2019-02-02T12:24:17.448Z,98.16
2019-02-02T12:25:25.482Z,99.30
2019-02-02T12:26:33.569Z,98.92
2019-02-02T12:27:41.612Z,98.54
2019-02-02T12:28:49.692Z,99.39
2019-02-02T12:29:58.103Z,97.78
2019-02-02T12:31:05.782Z,96.26
2019-02-02T12:32:13.840Z,99.99
2019-02-02T12:33:21.975Z,99.11
2019-02-02T12:34:29.981Z,99.99
2019-02-02T12:35:38.368Z,94.18
2019-02-02T12:36:46.079Z,94.84
2019-02-02T12:37:54.112Z,99.99
2019-02-02T12:39:02.186Z,98.73
2019-02-02T12:40:10.256Z,87.35
2019-02-02T12:41:18.316Z,91.80
2019-02-02T12:42:26.372Z,86.45
2019-02-02T12:43:34.423Z,81.05
2019-02-02T12:44:43.053Z,80.43
2019-02-02T12:45:50.605Z,84.03
2019-02-02T12:46:58.623Z,87.25
2019-02-02T12:48:06.738Z,82.28
2019-02-02T12:49:14.716Z,84.69
2019-02-02T12:50:22.782Z,87.73
2019-02-02T12:51:30.840Z,83.94
2019-02-02T12:52:38.883Z,87.06
2019-02-02T12:53:46.962Z,82.79
2019-02-02T12:54:55.013Z,85.41
2019-02-02T12:56:03.585Z,81.81
2019-02-02T12:57:11.127Z,84.12
2019-02-02T12:58:19.184Z,87.82
2019-02-02T12:59:27.272Z,94.65
2019-02-02T13:00:35.321Z,92.18
2019-02-02T13:01:43.369Z,94.37
2019-02-02T13:02:51.442Z,87.73
2019-02-02T13:04:01.490Z,86.40
2019-02-02T13:05:07.552Z,90.29
2019-02-02T13:06:15.608Z,87.63
2019-02-02T13:07:24.077Z,93.13
2019-02-02T13:08:31.743Z,86.68
2019-02-02T13:09:39.760Z,93.94
2019-02-02T13:10:47.836Z,90.14
2019-02-02T13:11:56.269Z,88.34
2019-02-02T13:13:03.937Z,89.00
2019-02-02T13:14:11.999Z,97.83
2019-02-02T13:15:20.065Z,98.40
2019-02-02T13:16:28.119Z,99.99
2019-02-02T13:17:36.190Z,99.99
2019-02-02T13:18:44.260Z,99.99
2019-02-02T13:19:52.343Z,99.99
2019-02-02T13:21:00.370Z,99.99
2019-02-02T13:22:08.413Z,99.99
2019-02-02T13:23:16.470Z,99.99
2019-02-02T13:24:24.506Z,99.99
2019-02-02T13:25:32.594Z,99.99
2019-02-02T13:26:40.667Z,99.99
2019-02-02T13:27:48.693Z,99.99
2019-02-02T13:28:56.767Z,99.99
2019-02-02T13:30:04.852Z,99.35
2019-02-02T13:31:12.880Z,98.49
2019-02-02T13:32:21.408Z,99.99
2019-02-02T13:33:29.005Z,99.99
2019-02-02T13:34:37.060Z,99.99
2019-02-02T13:35:45.111Z,99.99
2019-02-02T13:36:53.831Z,99.91
2019-02-02T13:38:01.236Z,99.99
2019-02-02T13:39:09.278Z,96.17
2019-02-02T13:40:17.349Z,99.99
2019-02-02T13:41:25.398Z,97.78
2019-02-02T13:42:33.457Z,99.99
2019-02-02T13:43:41.524Z,95.41
2019-02-02T13:44:49.576Z,94.37
2019-02-02T13:45:57.644Z,93.99
2019-02-02T13:47:05.706Z,95.12
2019-02-02T13:48:13.750Z,94.27
2019-02-02T13:49:21.831Z,92.85
2019-02-02T13:50:29.877Z,95.69
2019-02-02T13:51:37.938Z,95.03
2019-02-02T13:52:45.989Z,95.88
2019-02-02T13:53:54.014Z,97.02
2019-02-02T13:55:02.105Z,94.08
2019-02-02T13:56:10.160Z,91.14
2019-02-02T13:57:18.209Z,91.14
2019-02-02T13:58:26.291Z,89.72
2019-02-02T13:59:34.311Z,86.40
2019-02-02T14:00:43.696Z,84.59
2019-02-02T14:01:50.981Z,87.54
2019-02-02T14:03:03.441Z,86.30
2019-02-02T14:04:06.639Z,86.97
2019-02-02T14:05:14.613Z,84.12
2019-02-02T14:06:22.679Z,86.40
2019-02-02T14:07:30.748Z,88.39
2019-02-02T14:08:38.803Z,87.54
2019-02-02T14:09:46.857Z,89.91
2019-02-02T14:10:55.480Z,89.81
2019-02-02T14:12:02.980Z,88.96
2019-02-02T14:13:11.348Z,89.53
2019-02-02T14:14:19.097Z,85.60
2019-02-02T14:15:27.147Z,85.31
2019-02-02T14:16:35.203Z,83.23
2019-02-02T14:17:43.273Z,82.85
2019-02-02T14:18:51.537Z,80.48
2019-02-02T14:19:59.380Z,79.53
2019-02-02T14:21:07.438Z,78.77
2019-02-02T14:22:15.915Z,77.35
2019-02-02T14:23:23.568Z,77.16
2019-02-02T14:24:31.617Z,77.35
2019-02-02T14:25:39.669Z,76.68
2019-02-02T14:26:47.746Z,77.97
2019-02-02T14:27:55.825Z,75.42
2019-02-02T14:29:03.816Z,73.05
2019-02-02T14:30:11.914Z,74.56
2019-02-02T14:31:19.980Z,73.05
2019-02-02T14:32:28.562Z,73.80
2019-02-02T14:33:36.060Z,72.96
2019-02-02T14:34:44.118Z,72.19
2019-02-02T14:35:52.173Z,69.54